Time;durP1;ratioP1;P1;durP2;ratioP2;P2;SDS_P1;SDS_P2;PMS_P1;PMS_P2;Temp;Humidity;BMP_temperature;BMP_pressure;BME280_temperature;BME280_humidity;BME280_pressure;Samples;Min_cycle;Max_cycle;Signal;HPM_P1;HPM_P2
2022/06/19 00:00:34;;;;;;;60.28;43.53;;;;;;;28.59;45.47;100821.25;5000480;28;20034;-72
2022/06/19 00:03:01;;;;;;;53.78;41.53;;;;;;;28.59;45.49;100824.72;4987534;28;20023;-72
2022/06/19 00:05:27;;;;;;;56.95;42.42;;;;;;;28.59;46.02;100815.88;4987045;28;20022;-72
2022/06/19 00:07:52;;;;;;;54.80;39.38;;;;;;;28.57;45.85;100810.78;4988377;28;20088;-72
2022/06/19 00:10:18;;;;;;;55.50;40.78;;;;;;;28.57;45.73;100810.78;4998159;28;20031;-72
2022/06/19 00:12:43;;;;;;;46.30;36.47;;;;;;;28.56;45.66;100806.47;4987066;28;20666;-72
2022/06/19 00:15:09;;;;;;;48.92;34.45;;;;;;;28.54;45.44;100805.94;4987141;28;20034;-72
2022/06/19 00:17:35;;;;;;;52.15;34.65;;;;;;;28.52;45.58;100799.19;5002760;28;20478;-72
2022/06/19 00:20:01;;;;;;;57.58;38.13;;;;;;;28.51;45.87;100797.59;5007983;28;20125;-72
2022/06/19 00:22:26;;;;;;;55.65;39.60;;;;;;;28.49;45.92;100802.38;5011400;28;20049;-72
2022/06/19 00:24:52;;;;;;;57.65;39.08;;;;;;;28.49;45.50;100797.84;5011186;28;20033;-72
2022/06/19 00:27:17;;;;;;;62.50;44.10;;;;;;;28.47;45.51;100791.91;4998584;28;20085;-72
2022/06/19 00:29:43;;;;;;;63.90;43.60;;;;;;;28.46;45.48;100793.00;4991682;28;20042;-72
2022/06/19 00:32:09;;;;;;;68.55;46.15;;;;;;;28.45;45.67;100790.56;4991458;28;20483;-72
2022/06/19 00:34:37;;;;;;;65.65;47.65;;;;;;;28.44;45.25;100792.44;4991377;28;20062;-72
2022/06/19 00:37:04;;;;;;;75.43;56.13;;;;;;;28.44;45.38;100787.06;4993846;28;20073;-72
2022/06/19 00:39:32;;;;;;;68.50;51.25;;;;;;;28.43;45.51;100790.81;5011189;28;20030;-72
2022/06/19 00:41:58;;;;;;;64.93;50.22;;;;;;;28.43;45.75;100785.47;5006921;28;20017;-72
2022/06/19 00:44:23;;;;;;;67.80;51.90;;;;;;;28.44;45.79;100787.06;4998503;28;20485;-72
2022/06/19 00:46:53;;;;;;;74.00;54.33;;;;;;;28.44;45.77;100784.38;4991352;28;20038;-72
2022/06/19 00:49:33;;;;;;;65.05;50.22;;;;;;;28.45;45.87;100780.66;5004091;28;20061;-72
2022/06/19 00:52:10;;;;;;;66.47;50.08;;;;;;;28.44;45.62;100776.34;4991221;28;20533;-72
2022/06/19 00:54:46;;;;;;;67.72;51.00;;;;;;;28.46;45.63;100768.88;4990144;28;20031;-72
2022/06/19 00:57:12;;;;;;;67.85;52.83;;;;;;;28.46;45.95;100771.53;4996282;28;20040;-72
2022/06/19 00:59:42;;;;;;;58.85;44.58;;;;;;;28.47;46.00;100773.16;5010622;28;20057;-72
2022/06/19 01:02:08;;;;;;;64.78;45.95;;;;;;;28.47;45.52;100773.16;4994634;28;20034;-72
2022/06/19 01:04:41;;;;;;;60.80;44.40;;;;;;;28.49;45.41;100767.56;4990091;28;20022;-72
2022/06/19 01:07:07;;;;;;;41.95;30.33;;;;;;;28.47;45.89;100757.09;4989950;28;20022;-72
2022/06/19 01:09:33;;;;;;;30.25;22.30;;;;;;;28.46;45.40;100758.16;4989545;28;20022;-72
2022/06/19 01:12:02;;;;;;;23.60;16.83;;;;;;;28.47;45.44;100764.31;5003636;28;20029;-72
2022/06/19 01:14:28;;;;;;;16.27;12.40;;;;;;;28.46;45.27;100758.16;4988630;28;20050;-72
2022/06/19 01:16:53;;;;;;;10.75;8.52;;;;;;;28.44;45.25;100751.44;5007089;28;20065;-72
2022/06/19 01:19:23;;;;;;;11.45;9.07;;;;;;;28.40;45.00;100749.25;5007733;28;20033;-72
2022/06/19 01:22:00;;;;;;;7.88;6.50;;;;;;;28.39;45.21;100746.84;5011479;28;20117;-72
2022/06/19 01:25:03;;;;;;;7.18;5.40;;;;;;;28.34;45.29;100744.94;5003197;28;20070;-72
2022/06/19 01:30:16;;;;;;;7.32;5.25;;;;;;;28.34;45.23;100736.09;5014565;28;20449;-73
2022/06/19 01:32:44;;;;;;;7.10;5.13;;;;;;;28.34;45.15;100736.09;5013464;28;20037;-73
2022/06/19 01:35:11;;;;;;;7.00;4.75;;;;;;;28.33;45.25;100735.28;5013567;28;20018;-72
2022/06/19 01:37:39;;;;;;;9.13;6.13;;;;;;;28.33;45.55;100727.25;5005973;28;20031;-72
2022/06/19 01:40:22;;;;;;;6.57;5.93;;;;;;;28.30;45.49;100725.09;5008396;28;20109;-72
2022/06/19 01:42:48;;;;;;;6.47;5.65;;;;;;;28.32;45.09;100728.31;4992487;28;20109;-72
2022/06/19 01:45:15;;;;;;;6.00;4.50;;;;;;;28.33;45.04;100715.72;4989930;28;20047;-72
2022/06/19 01:47:41;;;;;;;6.13;4.43;;;;;;;28.34;45.16;100725.38;4988062;28;20707;-71
2022/06/19 01:50:14;;;;;;;4.88;4.20;;;;;;;28.33;44.91;100726.44;5007121;28;20095;-72
2022/06/19 01:52:40;;;;;;;4.22;3.83;;;;;;;28.33;44.98;100718.41;4989919;28;20501;-71
2022/06/19 01:55:20;;;;;;;7.40;3.90;;;;;;;28.33;44.90;100715.72;4990036;28;20026;-71
2022/06/19 01:57:54;;;;;;;5.40;3.00;;;;;;;28.34;45.06;100717.34;5000695;28;20033;-72
2022/06/19 02:00:23;;;;;;;2.97;2.78;;;;;;;28.33;44.94;100719.22;5009280;28;20441;-72
2022/06/19 02:03:00;;;;;;;3.78;3.40;;;;;;;28.33;45.02;100724.56;4988753;28;20035;-71
2022/06/19 02:05:26;;;;;;;3.08;2.72;;;;;;;28.32;45.07;100712.25;4989915;28;20038;-71
2022/06/19 02:07:52;;;;;;;5.47;3.35;;;;;;;28.34;44.94;100720.03;4989067;28;20117;-72
2022/06/19 02:10:17;;;;;;;3.15;2.38;;;;;;;28.35;44.66;100721.63;4987657;28;20121;-72
2022/06/19 02:12:43;;;;;;;2.72;2.20;;;;;;;28.33;44.95;100724.56;4988134;28;20026;-72
2022/06/19 02:15:11;;;;;;;2.47;2.30;;;;;;;28.34;44.60;100720.03;4989778;28;20026;-72
2022/06/19 02:17:49;;;;;;;4.10;3.08;;;;;;;28.32;44.75;100717.59;4986689;28;20490;-72
2022/06/19 02:20:16;;;;;;;3.95;2.95;;;;;;;28.32;44.48;100717.59;4989669;28;20041;-72
2022/06/19 02:22:41;;;;;;;4.75;2.55;;;;;;;28.30;44.67;100714.38;4989520;28;20035;-72
2022/06/19 02:25:08;;;;;;;3.28;2.53;;;;;;;28.29;44.74;100717.31;4989345;28;20030;-72
2022/06/19 02:27:34;;;;;;;2.38;1.90;;;;;;;28.28;44.69;100718.38;4996891;28;20561;-72
2022/06/19 02:30:01;;;;;;;3.33;2.15;;;;;;;28.27;44.93;100714.88;5009201;28;20026;-72
2022/06/19 02:32:48;;;;;;;1.85;1.73;;;;;;;28.24;44.95;100717.25;5009286;28;20498;-71
2022/06/19 02:35:19;;;;;;;3.63;1.92;;;;;;;28.25;44.81;100710.84;5008886;28;20103;-72
2022/06/19 02:37:47;;;;;;;4.20;2.15;;;;;;;28.24;45.00;100710.03;4997378;28;20040;-72
2022/06/19 02:40:46;;;;;;;2.55;2.35;;;;;;;28.22;44.56;100711.34;5001330;28;20027;-72
2022/06/19 02:43:28;;;;;;;3.22;1.90;;;;;;;28.21;44.52;100707.00;5000566;28;20506;-72
2022/06/19 02:45:55;;;;;;;2.28;2.08;;;;;;;28.22;44.56;100697.94;5008770;28;20034;-72
2022/06/19 02:48:25;;;;;;;3.67;1.80;;;;;;;28.21;44.52;100693.63;5006668;28;20687;-72
2022/06/19 02:50:51;;;;;;;2.50;1.98;;;;;;;28.22;44.60;100695.28;5008767;28;20026;-72
2022/06/19 02:53:18;;;;;;;4.30;2.05;;;;;;;28.20;44.45;100682.09;5008493;28;20157;-72
2022/06/19 02:55:44;;;;;;;3.17;1.98;;;;;;;28.21;44.40;100682.91;4994304;28;20092;-72
2022/06/19 02:58:10;;;;;;;1.92;1.73;;;;;;;28.20;44.34;100687.47;4997881;28;20034;-72
2022/06/19 03:00:36;;;;;;;2.55;1.67;;;;;;;28.20;44.27;100679.41;5000325;28;20026;-71
2022/06/19 03:03:11;;;;;;;1.70;1.60;;;;;;;28.19;44.08;100674.31;4988652;28;20442;-72
2022/06/19 03:05:36;;;;;;;2.50;1.75;;;;;;;28.19;44.01;100668.97;4986460;28;20030;-71
2022/06/19 03:08:02;;;;;;;1.88;1.40;;;;;;;28.18;44.00;100667.34;4987444;28;20030;-72
2022/06/19 03:10:30;;;;;;;2.60;2.40;;;;;;;28.18;44.08;100662.78;4988270;28;20033;-72
2022/06/19 03:12:57;;;;;;;5.75;1.75;;;;;;;28.18;44.00;100662.00;4992889;28;20121;-72
2022/06/19 03:15:22;;;;;;;2.72;1.75;;;;;;;28.18;44.05;100662.78;4996716;28;20042;-72
2022/06/19 03:17:48;;;;;;;1.60;1.45;;;;;;;28.18;43.76;100653.94;4988397;28;20093;-72
2022/06/19 03:20:17;;;;;;;1.55;1.45;;;;;;;28.18;43.80;100662.00;4987678;28;20104;-72
2022/06/19 03:22:42;;;;;;;3.00;1.50;;;;;;;28.18;43.85;100662.78;4989212;28;20085;-72
2022/06/19 03:25:08;;;;;;;2.05;1.55;;;;;;;28.17;43.76;100665.72;4988651;28;20027;-72
2022/06/19 03:27:33;;;;;;;2.15;1.17;;;;;;;28.16;43.66;100664.13;4989023;28;20121;-72
2022/06/19 03:29:59;;;;;;;2.78;1.20;;;;;;;28.13;44.00;100667.31;5006047;28;20486;-72
2022/06/19 03:32:24;;;;;;;2.45;1.48;;;;;;;28.13;43.75;100675.34;5266711;22;20053;-71
2022/06/19 03:34:49;;;;;;;2.38;1.52;;;;;;;28.12;43.68;100669.16;5008153;28;20452;-72
2022/06/19 03:37:15;;;;;;;1.20;1.10;;;;;;;28.12;43.64;100673.72;5008370;28;20120;-72
2022/06/19 03:39:40;;;;;;;1.75;1.20;;;;;;;28.12;43.85;100674.53;5008220;28;20374;-72
2022/06/19 03:42:06;;;;;;;3.28;1.60;;;;;;;28.11;43.72;100675.59;5008143;28;20029;-72
2022/06/19 03:44:33;;;;;;;1.30;0.88;;;;;;;28.11;43.88;100675.59;5008260;28;20037;-72
2022/06/19 03:46:58;;;;;;;5.00;1.15;;;;;;;28.10;43.71;100673.97;5007926;28;20022;-72
2022/06/19 03:49:24;;;;;;;2.03;1.27;;;;;;;28.08;43.67;100670.75;5006066;28;20217;-72
2022/06/19 03:51:50;;;;;;;1.42;1.30;;;;;;;28.10;43.54;100676.66;5006548;28;20393;-72
2022/06/19 03:54:15;;;;;;;2.53;1.40;;;;;;;28.08;43.62;100676.91;5008327;28;20030;-72
2022/06/19 03:56:40;;;;;;;1.98;1.30;;;;;;;28.07;43.17;100683.31;5008727;28;20436;-72
2022/06/19 03:59:09;;;;;;;3.25;1.30;;;;;;;28.03;43.68;100676.84;5012244;28;20053;-72
2022/06/19 04:01:37;;;;;;;1.45;1.15;;;;;;;28.03;43.10;100679.53;5010379;28;20033;-72
2022/06/19 04:04:06;;;;;;;4.45;1.10;;;;;;;28.03;43.08;100671.50;5011584;28;20593;-72
2022/06/19 04:06:34;;;;;;;2.78;1.08;;;;;;;28.05;43.42;100674.75;5011653;28;20547;-72
2022/06/19 04:09:00;;;;;;;1.75;1.10;;;;;;;28.05;43.18;100672.06;5011771;28;20030;-72
2022/06/19 04:11:28;;;;;;;1.38;1.15;;;;;;;28.06;43.24;100670.19;5011823;28;20088;-72
2022/06/19 04:13:54;;;;;;;1.60;1.10;;;;;;;28.06;43.13;100670.19;5011487;28;20140;-72
2022/06/19 04:16:25;;;;;;;2.45;1.08;;;;;;;28.04;43.22;100662.41;5009487;28;20112;-72
2022/06/19 04:18:53;;;;;;;3.13;1.20;;;;;;;28.06;43.14;100664.84;4991828;28;20038;-72
2022/06/19 04:21:21;;;;;;;2.30;0.77;;;;;;;28.05;43.06;100669.38;4991982;28;20034;-72
2022/06/19 04:23:49;;;;;;;2.08;1.27;;;;;;;28.03;42.93;100671.50;4991681;28;20038;-72
2022/06/19 04:26:16;;;;;;;1.48;0.90;;;;;;;28.03;43.20;100670.69;4992127;28;20029;-72
2022/06/19 04:28:42;;;;;;;1.83;0.77;;;;;;;28.01;43.35;100670.94;4991670;28;20060;-72
2022/06/19 04:31:09;;;;;;;2.97;1.02;;;;;;;28.02;43.16;100667.22;4991669;28;20022;-72
2022/06/19 04:33:38;;;;;;;2.20;0.93;;;;;;;28.00;43.03;100666.66;4991541;28;20033;-72
2022/06/19 04:36:09;;;;;;;1.58;0.70;;;;;;;28.01;43.08;100668.28;4991332;28;20591;-72
2022/06/19 04:38:36;;;;;;;1.88;0.80;;;;;;;28.02;43.42;100661.03;4991457;28;20026;-71
2022/06/19 04:41:01;;;;;;;0.90;0.70;;;;;;;28.01;43.28;100662.91;4991425;28;20034;-72
2022/06/19 04:43:27;;;;;;;2.75;1.13;;;;;;;28.02;43.01;100667.22;4991176;28;20034;-71
2022/06/19 04:46:00;;;;;;;1.00;0.77;;;;;;;28.01;42.94;100662.91;4991275;28;20041;-72
2022/06/19 04:48:26;;;;;;;1.85;0.80;;;;;;;28.02;43.35;100656.50;5007206;28;20113;-72
2022/06/19 04:50:53;;;;;;;3.30;0.90;;;;;;;28.01;43.22;100660.25;5010165;28;20589;-72
2022/06/19 04:53:19;;;;;;;3.90;1.08;;;;;;;28.00;42.95;100661.31;5009360;28;20116;-72
2022/06/19 04:55:44;;;;;;;1.40;0.80;;;;;;;28.03;42.94;100670.69;5009444;28;20041;-72
2022/06/19 04:58:10;;;;;;;1.98;0.85;;;;;;;28.00;43.01;100666.66;5010725;28;20430;-72
2022/06/19 05:00:35;;;;;;;3.15;0.80;;;;;;;28.00;43.08;100669.34;5009717;28;20037;-72
2022/06/19 05:03:00;;;;;;;1.63;0.80;;;;;;;28.00;42.98;100677.38;5010858;28;20444;-72
2022/06/19 05:05:26;;;;;;;1.50;0.70;;;;;;;27.99;43.02;100677.63;5010646;28;20240;-72
2022/06/19 05:07:51;;;;;;;3.50;0.60;;;;;;;27.98;43.03;100679.50;5009286;28;20022;-72
2022/06/19 05:10:17;;;;;;;2.05;0.50;;;;;;;27.98;43.43;100676.81;5008934;28;20034;-72
2022/06/19 05:12:42;;;;;;;1.73;0.77;;;;;;;27.99;43.22;100675.75;5008193;28;20121;-72
2022/06/19 05:15:09;;;;;;;1.77;0.80;;;;;;;28.00;43.14;100677.38;5010245;28;20497;-72
2022/06/19 05:17:35;;;;;;;1.63;0.63;;;;;;;28.00;43.00;100677.38;5010238;28;20029;-72
2022/06/19 05:20:02;;;;;;;2.03;0.70;;;;;;;28.00;43.15;100674.69;5010171;28;20022;-72
2022/06/19 05:22:28;;;;;;;2.47;0.63;;;;;;;27.98;42.88;100679.50;5010379;28;20072;-72
2022/06/19 05:24:54;;;;;;;1.67;0.63;;;;;;;27.94;43.06;100683.75;5011481;28;20388;-72
2022/06/19 05:27:20;;;;;;;0.82;0.70;;;;;;;27.94;43.04;100690.97;5016477;28;20428;-72
2022/06/19 05:29:45;;;;;;;1.92;0.60;;;;;;;27.91;42.84;100684.25;5009682;28;20053;-72
2022/06/19 05:32:11;;;;;;;2.05;0.63;;;;;;;27.86;42.79;100681.53;5010068;28;20489;-72
2022/06/19 05:34:37;;;;;;;3.17;0.80;;;;;;;27.82;42.55;100683.09;5009858;28;20029;-71
2022/06/19 05:37:03;;;;;;;2.22;0.70;;;;;;;27.84;42.49;100689.03;5009816;28;20105;-72
2022/06/19 05:39:29;;;;;;;1.75;0.60;;;;;;;27.86;42.51;100689.56;5009571;28;20053;-71
2022/06/19 05:41:57;;;;;;;1.38;0.63;;;;;;;27.87;42.48;100680.47;5009866;28;20074;-71
2022/06/19 05:44:26;;;;;;;2.13;0.70;;;;;;;27.88;42.39;100684.78;5009754;28;20038;-72
2022/06/19 05:46:53;;;;;;;1.95;0.90;;;;;;;27.86;42.51;100681.53;5009777;28;20030;-71
2022/06/19 05:49:19;;;;;;;2.38;0.85;;;;;;;27.87;42.54;100677.81;5009641;28;20153;-72
2022/06/19 05:51:44;;;;;;;1.05;0.65;;;;;;;27.89;42.55;100686.38;5010036;28;20488;-72
2022/06/19 05:54:10;;;;;;;2.05;0.73;;;;;;;27.90;42.81;100687.16;5009429;28;20022;-71
2022/06/19 05:56:35;;;;;;;2.05;0.75;;;;;;;27.88;42.70;100684.78;5009683;28;20033;-72
2022/06/19 05:59:01;;;;;;;1.48;0.77;;;;;;;27.87;42.86;100680.47;5009380;28;20501;-72
2022/06/19 06:01:28;;;;;;;2.13;0.55;;;;;;;27.88;42.87;100679.41;5009439;28;20052;-72
2022/06/19 06:03:54;;;;;;;1.23;0.60;;;;;;;27.87;42.55;100675.13;5009434;28;20041;-72
2022/06/19 06:06:28;;;;;;;1.13;0.70;;;;;;;27.87;42.58;100669.78;5009562;28;20128;-71
2022/06/19 06:08:54;;;;;;;2.72;0.68;;;;;;;27.87;42.72;100683.16;5009233;28;20034;-72
2022/06/19 06:11:21;;;;;;;4.00;0.77;;;;;;;27.88;42.53;100671.38;5009322;28;20500;-72
2022/06/19 06:13:47;;;;;;;1.40;0.65;;;;;;;27.85;42.45;100665.72;5009146;28;20441;-72
2022/06/19 06:16:15;;;;;;;1.60;0.63;;;;;;;27.86;42.39;100668.16;5009218;28;20096;-72
2022/06/19 06:18:41;;;;;;;2.20;0.82;;;;;;;27.85;42.40;100663.88;5008921;28;20049;-72
2022/06/19 06:21:16;;;;;;;2.03;0.50;;;;;;;27.84;42.63;100670.28;5008869;28;20084;-72
2022/06/19 06:23:42;;;;;;;2.17;0.70;;;;;;;27.82;42.81;100668.91;5009371;28;20029;-73
2022/06/19 06:26:11;;;;;;;1.55;0.70;;;;;;;27.78;42.65;100667.81;5008969;28;20061;-73
2022/06/19 06:28:39;;;;;;;2.08;0.65;;;;;;;27.75;42.98;100669.94;5009264;28;20026;-72
2022/06/19 06:31:05;;;;;;;2.40;0.80;;;;;;;27.75;42.92;100669.94;5008982;28;20033;-72
2022/06/19 06:33:32;;;;;;;2.15;0.63;;;;;;;27.77;43.25;100664.31;5008672;28;20053;-73
2022/06/19 06:35:58;;;;;;;3.33;0.60;;;;;;;27.77;43.20;100661.66;5009012;28;20084;-73
2022/06/19 06:38:24;;;;;;;10.65;1.25;;;;;;;27.80;43.87;100663.81;5008666;28;20029;-72
2022/06/19 06:40:50;;;;;;;5.95;1.48;;;;;;;27.91;44.58;100668.19;5008518;28;20064;-72
2022/06/19 06:43:16;;;;;;;6.70;1.23;;;;;;;28.01;44.92;100667.47;5008877;28;20235;-73
2022/06/19 06:45:42;;;;;;;5.90;0.93;;;;;;;28.00;44.94;100665.84;5009145;28;20091;-73
2022/06/19 06:48:08;;;;;;;3.17;0.80;;;;;;;27.97;44.31;100661.81;5008636;28;20325;-73
2022/06/19 06:50:34;;;;;;;6.07;0.88;;;;;;;27.95;44.40;100663.94;5008592;28;20030;-73
2022/06/19 06:52:59;;;;;;;5.43;0.80;;;;;;;27.94;44.33;100665.00;5008345;28;20105;-73
2022/06/19 06:55:25;;;;;;;4.30;1.13;;;;;;;27.93;44.30;100666.06;5008254;28;20069;-72
2022/06/19 06:57:50;;;;;;;3.92;0.50;;;;;;;27.93;44.40;100668.72;5008774;28;20064;-73
2022/06/19 07:00:19;;;;;;;5.55;1.25;;;;;;;27.93;44.02;100671.41;5007171;28;20034;-73
2022/06/19 07:02:45;;;;;;;2.40;0.90;;;;;;;27.93;43.93;100668.72;5008100;28;20448;-73
2022/06/19 07:05:11;;;;;;;2.25;0.80;;;;;;;27.89;43.35;100670.31;5004935;28;20030;-73
2022/06/19 07:07:36;;;;;;;2.78;0.90;;;;;;;27.88;43.26;100667.91;5006554;28;20363;-74
2022/06/19 07:10:02;;;;;;;2.45;0.70;;;;;;;27.86;43.28;100665.47;5007378;28;20131;-73
2022/06/19 07:12:28;;;;;;;2.50;1.02;;;;;;;27.88;43.34;100660.69;5007687;28;20078;-73
2022/06/19 07:14:53;;;;;;;4.10;0.63;;;;;;;27.87;43.24;100660.94;5008114;28;20034;-73
2022/06/19 07:17:18;;;;;;;3.80;0.65;;;;;;;27.89;43.62;100662.25;5006780;28;20477;-73
2022/06/19 07:19:44;;;;;;;1.42;0.63;;;;;;;27.88;43.89;100658.00;5008161;28;20058;-72
2022/06/19 07:22:14;;;;;;;3.00;0.65;;;;;;;27.90;44.11;100658.53;5008394;28;20028;-73
2022/06/19 07:24:41;;;;;;;1.90;0.85;;;;;;;27.90;43.89;100655.84;5008198;28;20389;-72
2022/06/19 07:27:06;;;;;;;10.43;1.27;;;;;;;27.87;43.84;100656.38;5006117;28;20706;-72
2022/06/19 07:29:32;;;;;;;4.20;0.93;;;;;;;27.83;43.91;100657.16;5006359;28;20041;-73
2022/06/19 07:31:57;;;;;;;3.92;1.02;;;;;;;27.79;44.28;100651.50;5002343;28;20050;-73
2022/06/19 07:34:22;;;;;;;2.50;0.85;;;;;;;27.83;44.12;100655.28;5010313;28;20473;-73
2022/06/19 07:36:48;;;;;;;1.48;0.63;;;;;;;27.85;44.38;100652.34;5012074;28;20034;-73
2022/06/19 07:39:13;;;;;;;3.25;0.95;;;;;;;27.86;44.62;100654.78;5011827;28;20056;-74
2022/06/19 07:41:39;;;;;;;7.93;0.70;;;;;;;27.86;44.25;100652.09;5003336;28;20033;-73
2022/06/19 07:44:04;;;;;;;1.15;0.82;;;;;;;27.75;43.65;100647.69;5010887;28;20367;-72
2022/06/19 07:46:29;;;;;;;2.20;1.10;;;;;;;27.68;43.68;100644.41;5012108;28;20127;-73
2022/06/19 07:51:39;;;;;;;2.50;0.90;;;;;;;27.69;43.37;100648.72;5010283;28;20121;-72
2022/06/19 07:54:04;;;;;;;2.13;1.02;;;;;;;27.70;43.30;100645.78;5012324;28;20038;-72
2022/06/19 07:56:30;;;;;;;3.53;1.00;;;;;;;27.75;43.38;100647.69;5011722;28;20392;-72
2022/06/19 07:58:56;;;;;;;1.40;0.73;;;;;;;27.78;43.29;100652.56;5011117;28;20044;-73
2022/06/19 08:01:21;;;;;;;1.08;0.63;;;;;;;27.78;42.80;100646.38;5012263;28;20045;-72
2022/06/19 08:03:47;;;;;;;2.40;1.00;;;;;;;27.78;42.90;100639.16;5011821;28;20030;-72
2022/06/19 08:06:13;;;;;;;1.33;0.93;;;;;;;27.75;42.59;100639.66;5011735;28;20451;-72
2022/06/19 08:08:39;;;;;;;1.52;1.02;;;;;;;27.73;42.67;100647.94;5011129;28;20125;-73
2022/06/19 08:11:04;;;;;;;2.55;0.80;;;;;;;27.77;42.74;100644.78;5011665;28;20434;-73
2022/06/19 08:13:32;;;;;;;1.42;0.60;;;;;;;27.75;42.60;100647.69;5011270;28;20030;-73
2022/06/19 08:16:02;;;;;;;2.78;0.90;;;;;;;27.72;42.38;100642.84;5011233;28;20084;-73
2022/06/19 08:18:28;;;;;;;2.50;0.82;;;;;;;27.71;41.93;100649.25;5010896;28;20045;-73
2022/06/19 08:20:54;;;;;;;2.40;0.90;;;;;;;27.74;41.92;100646.09;5011316;28;20080;-72
2022/06/19 08:23:20;;;;;;;3.13;1.10;;;;;;;27.75;41.85;100645.03;5011780;28;20030;-72
2022/06/19 08:25:46;;;;;;;2.00;0.88;;;;;;;27.76;41.75;100638.63;5011891;28;20034;-73
2022/06/19 08:28:14;;;;;;;3.45;0.80;;;;;;;27.78;41.67;100636.50;5009747;28;20117;-73
2022/06/19 08:30:42;;;;;;;2.45;0.90;;;;;;;27.79;41.76;100631.94;5011638;28;20413;-73
2022/06/19 08:33:09;;;;;;;1.60;0.82;;;;;;;27.80;41.54;100639.72;5011117;28;20121;-73
2022/06/19 08:35:41;;;;;;;2.90;0.82;;;;;;;27.81;41.46;100638.66;5009501;28;20026;-73
2022/06/19 08:38:12;;;;;;;2.40;1.20;;;;;;;27.82;41.65;100636.78;5009781;28;20034;-73
2022/06/19 08:40:59;;;;;;;1.83;0.77;;;;;;;27.79;41.84;100632.75;5011113;28;20036;-73
2022/06/19 08:43:43;;;;;;;3.38;0.70;;;;;;;27.79;41.66;100629.25;5010625;28;20034;-72
2022/06/19 08:46:56;;;;;;;2.50;0.75;;;;;;;27.76;41.96;100630.59;5008885;28;20029;-72
2022/06/19 08:49:40;;;;;;;3.25;0.70;;;;;;;27.77;42.22;100629.53;4985682;28;20050;-73
2022/06/19 08:52:20;;;;;;;0.80;0.60;;;;;;;27.78;41.74;100631.13;4991212;28;20075;-73
2022/06/19 08:55:16;;;;;;;3.47;1.13;;;;;;;27.81;41.78;100635.19;4991071;28;20085;-72
2022/06/19 08:58:00;;;;;;;2.05;0.95;;;;;;;27.80;42.04;100626.34;4966246;28;20072;-72
2022/06/19 09:00:30;;;;;;;2.38;0.80;;;;;;;27.82;41.99;100637.59;5008171;28;20045;-73
2022/06/19 09:02:58;;;;;;;2.15;0.70;;;;;;;27.85;42.09;100625.56;5010116;28;20042;-72
2022/06/19 09:05:46;;;;;;;2.15;0.70;;;;;;;27.85;42.05;100617.53;5010967;28;20061;-73
2022/06/19 09:08:43;;;;;;;2.97;0.85;;;;;;;27.86;42.08;100627.19;5010683;28;20063;-73
2022/06/19 09:11:29;;;;;;;1.55;0.80;;;;;;;27.88;42.08;100615.16;5009676;28;20053;-73
2022/06/19 09:14:15;;;;;;;2.22;0.75;;;;;;;27.91;42.12;100624.53;5009825;28;20513;-73
2022/06/19 09:16:43;;;;;;;4.05;0.73;;;;;;;27.94;41.99;100616.78;5010489;28;20556;-72
2022/06/19 09:19:24;;;;;;;1.60;0.85;;;;;;;27.96;41.60;100616.53;5010300;28;20482;-72
2022/06/19 09:22:27;;;;;;;3.38;0.95;;;;;;;27.96;41.86;100614.66;5009839;28;20044;-73
2022/06/19 09:24:52;;;;;;;3.33;0.88;;;;;;;27.97;41.72;100618.16;5010476;28;20105;-73
2022/06/19 09:27:23;;;;;;;3.25;0.73;;;;;;;27.99;41.72;100616.84;5010112;28;20030;-73
2022/06/19 09:29:52;;;;;;;1.10;0.77;;;;;;;27.99;41.64;100616.03;5009586;28;20485;-72
2022/06/19 09:32:28;;;;;;;4.38;0.98;;;;;;;27.99;41.49;100610.69;5009783;28;20104;-72
2022/06/19 09:35:03;;;;;;;1.88;0.90;;;;;;;28.00;41.68;100613.09;5009849;28;20181;-73
2022/06/19 09:37:49;;;;;;;1.73;0.90;;;;;;;28.00;41.95;100607.75;5008942;28;20564;-72
2022/06/19 09:40:23;;;;;;;4.30;0.80;;;;;;;28.02;41.72;100600.25;5009397;28;20042;-72
2022/06/19 09:42:58;;;;;;;4.07;0.75;;;;;;;28.04;41.41;100598.13;5010089;28;20072;-72
2022/06/19 09:45:53;;;;;;;6.22;1.10;;;;;;;28.05;41.24;100593.59;5008004;28;20052;-72
2022/06/19 09:48:24;;;;;;;2.00;0.90;;;;;;;28.05;41.43;100590.91;5007610;28;20042;-72
2022/06/19 09:50:52;;;;;;;5.05;1.02;;;;;;;28.06;41.54;100590.66;5009677;28;20501;-73
2022/06/19 09:53:38;;;;;;;2.95;0.93;;;;;;;28.06;41.52;100587.97;5008301;28;20034;-72
2022/06/19 09:56:19;;;;;;;2.17;1.02;;;;;;;28.07;41.89;100594.94;5009887;28;20038;-72
2022/06/19 09:59:14;;;;;;;1.63;0.77;;;;;;;28.09;41.98;100587.47;5009583;28;20101;-72
2022/06/19 10:01:43;;;;;;;1.93;0.83;;;;;;;28.11;41.78;100587.22;5008996;28;20330;-73
2022/06/19 10:04:22;;;;;;;4.00;1.05;;;;;;;28.12;41.73;100582.66;5009270;28;20714;-73
2022/06/19 10:06:58;;;;;;;2.17;1.20;;;;;;;28.13;42.12;100584.28;5009617;28;20033;-73
2022/06/19 10:09:51;;;;;;;2.15;1.23;;;;;;;28.12;41.69;100579.97;5009356;28;20552;-72
2022/06/19 10:12:35;;;;;;;5.18;1.20;;;;;;;28.12;41.65;100580.78;4989867;28;20034;-72
2022/06/19 10:15:09;;;;;;;4.70;0.93;;;;;;;28.14;41.47;100580.53;4992557;28;20231;-72
2022/06/19 10:17:46;;;;;;;4.50;0.93;;;;;;;28.16;41.36;100579.22;5007330;28;20037;-72
2022/06/19 10:20:17;;;;;;;2.90;0.85;;;;;;;28.17;41.63;100583.50;5006955;28;20120;-73
2022/06/19 10:22:46;;;;;;;5.68;1.10;;;;;;;28.18;41.55;100576.28;5006299;28;20038;-73
2022/06/19 10:25:28;;;;;;;3.40;0.88;;;;;;;28.17;41.50;100583.50;4998097;28;20034;-74
2022/06/19 10:28:34;;;;;;;5.07;0.90;;;;;;;28.14;41.48;100583.22;4988915;28;20384;-76
2022/06/19 10:31:45;;;;;;;1.88;0.80;;;;;;;28.15;41.56;100576.78;4966883;28;20079;-74
2022/06/19 10:34:20;;;;;;;3.80;0.68;;;;;;;28.18;42.00;100582.44;4967382;28;20046;-75
2022/06/19 10:36:50;;;;;;;2.70;0.93;;;;;;;28.21;42.15;100586.47;4951322;28;20475;-73
2022/06/19 10:39:37;;;;;;;4.93;1.33;;;;;;;28.19;42.20;100584.06;4967310;28;20058;-75
2022/06/19 10:42:47;;;;;;;3.38;1.52;;;;;;;28.20;42.53;100574.16;4966549;28;20152;-74
2022/06/19 10:45:30;;;;;;;3.85;1.20;;;;;;;28.21;42.67;100568.56;4954392;28;20039;-74
2022/06/19 10:48:02;;;;;;;2.03;1.33;;;;;;;28.24;42.52;100568.03;4964681;28;20693;-74
2022/06/19 10:50:52;;;;;;;4.50;0.90;;;;;;;28.26;42.71;100565.09;4966562;28;20030;-74
2022/06/19 10:53:45;;;;;;;3.58;1.10;;;;;;;28.28;42.81;100561.09;4967454;28;20086;-75
2022/06/19 10:56:23;;;;;;;2.20;1.20;;;;;;;28.28;42.92;100558.44;4966822;28;20042;-76
2022/06/19 10:58:50;;;;;;;2.33;1.20;;;;;;;28.30;42.91;100563.53;4979492;28;20045;-75
2022/06/19 11:04:10;;;;;;;2.35;1.08;;;;;;;28.32;43.39;100567.56;4967342;28;20085;-73
2022/06/19 11:06:39;;;;;;;3.35;1.33;;;;;;;28.33;43.51;100566.50;4975984;28;20042;-77
2022/06/19 11:09:16;;;;;;;2.38;1.33;;;;;;;28.33;44.13;100554.97;5005227;28;20087;-74
2022/06/19 11:11:44;;;;;;;3.10;1.30;;;;;;;28.33;43.93;100558.47;5005264;28;20038;-75
2022/06/19 11:14:27;;;;;;;2.60;1.45;;;;;;;28.34;43.83;100561.94;5008119;28;20034;-75
2022/06/19 11:17:00;;;;;;;4.28;1.33;;;;;;;28.34;43.80;100559.25;5007424;28;20048;-74
2022/06/19 11:19:48;;;;;;;3.95;1.02;;;;;;;28.35;44.57;100552.84;5007534;28;20045;-74
2022/06/19 11:22:37;;;;;;;2.25;1.35;;;;;;;28.38;44.38;100563.00;5006842;28;20418;-75
2022/06/19 11:25:21;;;;;;;4.65;1.77;;;;;;;28.36;45.39;100557.91;5005361;28;20046;-74
2022/06/19 11:28:15;;;;;;;3.33;1.30;;;;;;;28.38;45.11;100558.47;5008642;28;20030;-74
2022/06/19 11:30:52;;;;;;;560.10;162.07;;;;;;;28.66;47.50;100551.91;5006135;28;20061;-77
2022/06/19 11:33:20;;;;;;;543.53;147.82;;;;;;;28.89;48.67;100552.53;5006722;28;20495;-75
2022/06/19 11:35:47;;;;;;;195.40;47.80;;;;;;;28.88;50.37;100562.47;5007436;28;20102;-75
2022/06/19 11:38:16;;;;;;;83.45;19.95;;;;;;;28.88;49.31;100559.78;5007612;28;20042;-76
2022/06/19 11:40:47;;;;;;;79.95;18.77;;;;;;;28.93;51.21;100561.66;5008943;28;20037;-75
2022/06/19 11:43:32;;;;;;;63.85;35.20;;;;;;;29.01;49.15;100548.56;5007720;28;20470;-76
2022/06/19 11:46:02;;;;;;;12.35;4.90;;;;;;;28.96;47.93;100545.88;5003216;28;20470;-73